Time;durP1;ratioP1;P1;durP2;ratioP2;P2;SDS_P1;SDS_P2;PMS_P1;PMS_P2;Temp;Humidity;BMP_temperature;BMP_pressure;BME280_temperature;BME280_humidity;BME280_pressure;Samples;Min_cycle;Max_cycle;Signal;HPM_P1;HPM_P2
2021/11/28 00:00:44;;;;;;;11.50;1.58;;;6.00;79.00;;;;;;5006471;28;20796;-68
2021/11/28 00:03:16;;;;;;;11.60;1.50;;;6.00;78.00;;;;;;5009236;28;20091;-68
2021/11/28 00:05:47;;;;;;;11.50;1.70;;;6.00;78.00;;;;;;5009180;28;20026;-68
2021/11/28 00:13:34;;;;;;;12.27;2.15;;;6.00;78.10;;;;;;4999650;28;20101;-68
2021/11/28 00:16:02;;;;;;;9.57;1.48;;;5.90;78.30;;;;;;5007702;28;20038;-68
2021/11/28 00:18:29;;;;;;;9.98;1.70;;;5.90;78.40;;;;;;4978581;28;20438;-68
2021/11/28 00:20:56;;;;;;;12.73;1.88;;;5.80;78.60;;;;;;5008368;28;20096;-68
2021/11/28 00:23:21;;;;;;;12.60;1.50;;;5.80;78.50;;;;;;5013032;28;20029;-68
2021/11/28 00:25:47;;;;;;;9.70;1.88;;;5.80;78.70;;;;;;5013015;28;20473;-68
2021/11/28 00:28:16;;;;;;;12.80;1.88;;;5.80;78.90;;;;;;5013876;28;20448;-68
2021/11/28 00:30:41;;;;;;;13.57;1.70;;;5.80;78.40;;;;;;5012650;28;20100;-68
2021/11/28 00:33:07;;;;;;;12.43;1.88;;;5.80;78.90;;;;;;5005273;28;20110;-68
2021/11/28 00:35:33;;;;;;;10.10;1.55;;;5.80;78.60;;;;;;5009334;28;20029;-68
2021/11/28 00:37:59;;;;;;;13.05;1.73;;;5.80;78.30;;;;;;5012386;28;20138;-68
2021/11/28 00:40:25;;;;;;;13.23;2.10;;;5.80;78.60;;;;;;4999933;28;20041;-68
2021/11/28 00:42:51;;;;;;;12.95;1.85;;;5.80;78.60;;;;;;5010196;28;20050;-68
2021/11/28 00:45:17;;;;;;;9.73;1.60;;;5.80;78.70;;;;;;5007515;28;20026;-68
2021/11/28 00:47:43;;;;;;;10.35;1.48;;;5.80;78.60;;;;;;5001214;28;20026;-68
2021/11/28 00:52:36;;;;;;;15.00;2.17;;;5.70;78.90;;;;;;5013552;28;20033;-68
2021/11/28 00:55:04;;;;;;;15.43;1.98;;;5.70;79.00;;;;;;5011714;28;20056;-68
2021/11/28 00:57:30;;;;;;;13.95;1.75;;;5.70;79.20;;;;;;5012182;28;20038;-68
2021/11/28 00:59:56;;;;;;;10.77;1.73;;;5.70;79.40;;;;;;5012067;28;20025;-68
2021/11/28 01:02:22;;;;;;;12.40;1.40;;;5.70;79.50;;;;;;5012243;28;20057;-68
2021/11/28 01:04:48;;;;;;;9.85;1.50;;;5.70;79.30;;;;;;5012506;28;20084;-68
2021/11/28 01:07:14;;;;;;;13.48;1.70;;;5.70;79.20;;;;;;5020744;28;20025;-68
2021/11/28 01:09:40;;;;;;;11.50;1.63;;;5.70;79.10;;;;;;5008551;28;20030;-68
2021/11/28 01:12:07;;;;;;;12.73;1.40;;;5.70;79.30;;;;;;5009277;28;20041;-68
2021/11/28 01:14:33;;;;;;;9.93;1.50;;;5.70;79.80;;;;;;5021624;28;20412;-68
2021/11/28 01:16:59;;;;;;;11.70;1.40;;;5.70;79.70;;;;;;4995909;28;20045;-68
2021/11/28 01:19:25;;;;;;;11.00;1.30;;;5.70;79.70;;;;;;5006862;28;20033;-68
2021/11/28 01:21:57;;;;;;;13.05;1.50;;;5.70;79.80;;;;;;5003020;28;20461;-68
2021/11/28 01:24:22;;;;;;;13.73;1.55;;;5.60;79.60;;;;;;5003967;28;20084;-68
2021/11/28 01:26:49;;;;;;;14.98;1.50;;;5.60;79.70;;;;;;5001144;28;20492;-68
2021/11/28 01:29:15;;;;;;;9.88;1.35;;;5.60;79.50;;;;;;5011474;28;20024;-68
2021/11/28 01:31:41;;;;;;;10.82;1.50;;;5.50;79.50;;;;;;5008953;28;20026;-68
2021/11/28 01:34:07;;;;;;;13.52;2.22;;;5.50;79.90;;;;;;5011626;28;20018;-68
2021/11/28 01:36:34;;;;;;;11.35;1.60;;;5.50;79.70;;;;;;5005674;28;20490;-68
2021/11/28 01:39:01;;;;;;;15.98;1.50;;;5.50;79.40;;;;;;4999335;28;20022;-68
2021/11/28 01:41:27;;;;;;;16.17;1.83;;;5.40;79.30;;;;;;4999224;28;20112;-68
2021/11/28 01:43:53;;;;;;;10.90;1.38;;;5.30;79.40;;;;;;5011076;28;20164;-68
2021/11/28 01:46:20;;;;;;;9.73;1.40;;;5.30;79.60;;;;;;4995488;28;20117;-68
2021/11/28 01:48:46;;;;;;;11.63;1.40;;;5.30;79.50;;;;;;5007856;28;20022;-68
2021/11/28 01:51:12;;;;;;;13.15;1.85;;;5.20;79.60;;;;;;5004575;28;20034;-68
2021/11/28 01:53:38;;;;;;;10.00;1.40;;;5.20;79.60;;;;;;4999128;28;20033;-68
2021/11/28 01:56:04;;;;;;;9.43;1.58;;;5.30;79.70;;;;;;4995755;28;20121;-68
2021/11/28 01:58:30;;;;;;;11.02;1.65;;;5.20;79.60;;;;;;5004783;28;20037;-68
2021/11/28 02:00:59;;;;;;;12.38;1.58;;;5.30;79.80;;;;;;5006363;28;20042;-68
2021/11/28 02:03:26;;;;;;;9.40;1.88;;;5.30;79.80;;;;;;5004857;28;20022;-68
2021/11/28 02:05:57;;;;;;;6.85;1.38;;;5.30;80.00;;;;;;5008999;28;20044;-68
2021/11/28 02:08:23;;;;;;;;;;;5.30;79.90;;;;;;4996985;28;20435;-68
2021/11/28 02:10:49;;;;;;;11.02;1.92;;;5.30;80.00;;;;;;5009070;28;19909;-68
2021/11/28 02:13:17;;;;;;;11.93;1.30;;;5.40;80.10;;;;;;4994685;28;20031;-68
2021/11/28 02:15:43;;;;;;;12.25;1.50;;;5.30;80.10;;;;;;4995628;28;20026;-68
2021/11/28 02:18:09;;;;;;;8.98;1.50;;;5.30;80.20;;;;;;4999737;28;20053;-68
2021/11/28 02:20:45;;;;;;;11.15;2.00;;;5.30;80.00;;;;;;4998138;28;20022;-68
2021/11/28 02:23:11;;;;;;;13.35;1.40;;;5.30;79.80;;;;;;5001832;28;20022;-67
2021/11/28 02:25:36;;;;;;;10.77;1.40;;;5.30;79.20;;;;;;4999603;28;20041;-68
2021/11/28 02:28:02;;;;;;;10.98;1.45;;;5.30;78.70;;;;;;5003045;28;20041;-68
2021/11/28 02:30:28;;;;;;;13.10;1.55;;;5.40;79.70;;;;;;4998706;28;20057;-68
2021/11/28 02:32:56;;;;;;;11.25;1.40;;;5.30;78.30;;;;;;4999324;28;20026;-68
2021/11/28 02:35:23;;;;;;;12.30;1.55;;;5.30;78.10;;;;;;5010549;28;20500;-68
2021/11/28 02:37:49;;;;;;;11.32;1.45;;;5.30;78.20;;;;;;5009814;28;20042;-68
2021/11/28 02:40:19;;;;;;;7.88;1.30;;;5.30;77.60;;;;;;5005080;28;20108;-68
2021/11/28 02:42:45;;;;;;;11.45;1.63;;;5.30;77.10;;;;;;5006374;28;20096;-68
2021/11/28 02:45:13;;;;;;;9.35;1.73;;;5.30;76.80;;;;;;5002303;28;20501;-68
2021/11/28 02:47:39;;;;;;;6.78;1.00;;;5.20;76.80;;;;;;5006524;28;20048;-68
2021/11/28 02:50:06;;;;;;;12.48;1.63;;;5.20;76.60;;;;;;5010340;28;20026;-68
2021/11/28 02:52:33;;;;;;;13.90;1.40;;;5.20;76.70;;;;;;5011065;28;20030;-68
2021/11/28 02:54:59;;;;;;;12.68;1.45;;;5.20;76.90;;;;;;5009664;28;20093;-68
2021/11/28 02:57:26;;;;;;;12.73;1.42;;;5.20;76.90;;;;;;5010284;28;20131;-68
2021/11/28 02:59:51;;;;;;;9.35;1.50;;;5.30;77.10;;;;;;5009864;28;20022;-68
2021/11/28 03:02:17;;;;;;;9.65;1.45;;;5.20;77.20;;;;;;5010126;28;20116;-68
2021/11/28 03:04:43;;;;;;;13.57;1.45;;;5.20;77.40;;;;;;5013883;28;20080;-68
2021/11/28 03:07:09;;;;;;;13.52;2.10;;;5.20;77.60;;;;;;5009318;28;20531;-68
2021/11/28 03:09:35;;;;;;;7.88;1.13;;;5.20;77.60;;;;;;5003947;28;20482;-68
2021/11/28 03:12:00;;;;;;;11.98;1.65;;;5.10;77.50;;;;;;5000533;28;20025;-68
2021/11/28 03:14:26;;;;;;;12.30;1.40;;;5.00;77.60;;;;;;5006365;28;20034;-68
2021/11/28 03:16:52;;;;;;;12.60;1.42;;;5.00;77.80;;;;;;5009719;28;20034;-68
2021/11/28 03:19:18;;;;;;;8.25;1.40;;;4.90;78.20;;;;;;5016068;28;20105;-68
2021/11/28 03:21:44;;;;;;;13.77;1.25;;;4.80;78.30;;;;;;5010266;28;20064;-68
2021/11/28 03:24:11;;;;;;;10.95;1.58;;;4.90;78.60;;;;;;5014822;28;20030;-68
2021/11/28 03:26:40;;;;;;;6.30;1.00;;;4.80;78.80;;;;;;5007904;28;20121;-68
2021/11/28 03:29:10;;;;;;;9.60;1.20;;;4.90;78.90;;;;;;5009902;28;20032;-68
2021/11/28 03:31:43;;;;;;;9.48;1.10;;;5.00;79.00;;;;;;5001197;28;20026;-68
2021/11/28 03:34:11;;;;;;;14.30;1.38;;;5.00;79.10;;;;;;5009761;28;20037;-68
2021/11/28 03:36:43;;;;;;;10.93;1.20;;;5.10;79.20;;;;;;5002506;28;20042;-68
2021/11/28 03:39:11;;;;;;;12.05;1.52;;;5.10;79.10;;;;;;5005788;28;20037;-68
2021/11/28 03:41:38;;;;;;;10.52;1.20;;;5.10;79.10;;;;;;5009200;28;20095;-68
2021/11/28 03:44:06;;;;;;;7.60;1.27;;;5.10;79.10;;;;;;5009509;28;20025;-68
2021/11/28 03:46:32;;;;;;;10.70;1.40;;;5.10;79.10;;;;;;5011037;28;20014;-68
2021/11/28 03:49:01;;;;;;;15.73;1.55;;;5.20;79.10;;;;;;5009317;28;20522;-68
2021/11/28 03:51:27;;;;;;;14.35;1.83;;;5.20;79.00;;;;;;5009450;28;20064;-68
2021/11/28 03:53:53;;;;;;;10.27;1.17;;;5.20;78.90;;;;;;5005053;28;20482;-68
2021/11/28 03:56:19;;;;;;;11.82;1.80;;;5.20;78.80;;;;;;5009981;28;20034;-68
2021/11/28 03:58:45;;;;;;;10.07;1.77;;;5.20;78.70;;;;;;5014300;28;20045;-68
2021/11/28 04:01:14;;;;;;;11.52;1.50;;;5.20;78.60;;;;;;5013760;28;20109;-68
2021/11/28 04:03:40;;;;;;;10.38;1.38;;;5.20;78.60;;;;;;5001678;28;20057;-68
2021/11/28 04:06:06;;;;;;;10.18;1.10;;;5.20;78.60;;;;;;5004901;28;20500;-68
2021/11/28 04:08:32;;;;;;;7.55;1.40;;;5.20;78.60;;;;;;5012364;28;20105;-68
2021/11/28 04:10:58;;;;;;;8.25;1.50;;;5.10;78.70;;;;;;5003312;28;20030;-68
2021/11/28 04:13:24;;;;;;;8.23;1.20;;;5.10;78.70;;;;;;5013952;28;20022;-68
2021/11/28 04:15:50;;;;;;;8.63;1.25;;;5.00;78.70;;;;;;5012823;28;20029;-68
2021/11/28 04:18:16;;;;;;;11.07;1.38;;;5.00;78.80;;;;;;5012512;28;20038;-68
2021/11/28 04:20:42;;;;;;;10.20;1.38;;;4.90;78.80;;;;;;5013134;28;20025;-68
2021/11/28 04:23:08;;;;;;;12.60;1.20;;;4.90;79.00;;;;;;5012675;28;20034;-68
2021/11/28 04:25:35;;;;;;;13.00;1.42;;;4.90;79.50;;;;;;5013995;28;20034;-68
2021/11/28 04:28:01;;;;;;;13.50;2.22;;;4.90;79.20;;;;;;5011959;28;20045;-68
2021/11/28 04:30:28;;;;;;;18.27;1.95;;;4.90;79.30;;;;;;5007405;28;20034;-68
2021/11/28 04:32:54;;;;;;;14.48;1.65;;;4.90;79.40;;;;;;5005497;28;20389;-68
2021/11/28 04:35:20;;;;;;;8.00;1.40;;;4.90;79.40;;;;;;5012669;28;20034;-68
2021/11/28 04:37:47;;;;;;;11.55;1.70;;;4.90;79.40;;;;;;5013031;28;20037;-68
2021/11/28 04:40:12;;;;;;;9.40;1.35;;;4.90;80.20;;;;;;5006995;28;20029;-68
2021/11/28 04:42:38;;;;;;;11.65;1.38;;;4.90;79.00;;;;;;5012017;28;20050;-68
2021/11/28 04:45:05;;;;;;;12.98;1.35;;;4.90;79.00;;;;;;5010041;28;20095;-68
2021/11/28 04:47:31;;;;;;;12.82;1.40;;;4.90;78.80;;;;;;5000515;28;20036;-68
2021/11/28 04:49:57;;;;;;;12.20;1.50;;;4.80;78.70;;;;;;5012315;28;20030;-67
2021/11/28 04:52:23;;;;;;;14.15;1.83;;;4.80;78.80;;;;;;5000288;28;20401;-68
2021/11/28 04:54:49;;;;;;;12.30;1.38;;;4.70;78.80;;;;;;5012125;28;20077;-68
2021/11/28 04:57:15;;;;;;;16.45;1.52;;;4.80;78.90;;;;;;5012158;28;20045;-68
2021/11/28 04:59:41;;;;;;;7.47;1.25;;;4.80;79.00;;;;;;5014370;28;20411;-68
2021/11/28 05:02:06;;;;;;;12.43;1.20;;;4.80;79.00;;;;;;5011700;28;20041;-68
2021/11/28 05:04:32;;;;;;;8.98;1.70;;;4.90;79.10;;;;;;5013168;28;20022;-68
2021/11/28 05:06:58;;;;;;;11.55;1.35;;;4.90;79.00;;;;;;5011194;28;20037;-68
2021/11/28 05:09:25;;;;;;;14.35;1.35;;;5.00;79.10;;;;;;5010667;28;20038;-68
2021/11/28 05:11:50;;;;;;;14.98;1.67;;;5.00;79.30;;;;;;5011752;28;20037;-68
2021/11/28 05:14:16;;;;;;;17.02;1.63;;;5.00;79.30;;;;;;5011820;28;20037;-68
2021/11/28 05:16:42;;;;;;;8.95;1.25;;;5.00;79.30;;;;;;5013197;28;20053;-68
2021/11/28 05:19:08;;;;;;;13.63;1.30;;;4.90;79.30;;;;;;5013397;28;20034;-68
2021/11/28 05:21:34;;;;;;;12.65;1.48;;;4.90;79.50;;;;;;5011695;28;20034;-68
2021/11/28 05:24:00;;;;;;;9.45;1.27;;;4.90;79.70;;;;;;5009567;28;20022;-68
2021/11/28 05:26:26;;;;;;;9.93;1.30;;;4.80;79.70;;;;;;5003938;28;20076;-68
2021/11/28 05:28:51;;;;;;;8.77;1.25;;;4.80;79.90;;;;;;5012353;28;20036;-68
2021/11/28 05:31:18;;;;;;;9.60;1.30;;;4.80;80.40;;;;;;5000123;28;20113;-68
2021/11/28 05:33:47;;;;;;;8.48;1.27;;;4.80;80.50;;;;;;5008868;28;20030;-68
2021/11/28 05:36:20;;;;;;;10.00;1.65;;;4.90;80.60;;;;;;5004060;28;20018;-68
2021/11/28 05:38:54;;;;;;;13.10;1.77;;;4.90;81.00;;;;;;5011760;28;20096;-68
2021/11/28 05:41:24;;;;;;;15.77;1.70;;;4.90;81.10;;;;;;4996463;28;20116;-68
2021/11/28 05:43:51;;;;;;;;;;;5.00;81.50;;;;;;5011537;28;20137;-68
2021/11/28 05:46:21;;;;;;;6.95;1.13;;;5.00;81.60;;;;;;5011409;28;19960;-68
2021/11/28 05:48:55;;;;;;;11.35;1.15;;;5.10;81.60;;;;;;5011420;28;20493;-68
2021/11/28 05:51:24;;;;;;;9.77;1.13;;;5.10;81.70;;;;;;5011604;28;20038;-68
2021/11/28 05:53:53;;;;;;;8.82;1.13;;;5.10;81.80;;;;;;5010828;28;20478;-68
2021/11/28 05:56:22;;;;;;;9.20;1.17;;;5.10;82.10;;;;;;5011240;28;20038;-68
2021/11/28 05:58:53;;;;;;;10.30;1.10;;;5.10;82.10;;;;;;5012250;28;20022;-68
2021/11/28 06:01:22;;;;;;;7.45;1.02;;;5.00;82.10;;;;;;5011171;28;20022;-68
2021/11/28 06:03:53;;;;;;;11.68;1.20;;;5.00;82.20;;;;;;5010987;28;20108;-68
2021/11/28 06:06:21;;;;;;;;;;;4.90;82.30;;;;;;5011520;28;20037;-68
2021/11/28 06:08:52;;;;;;;10.43;1.30;;;4.90;82.60;;;;;;5011220;28;19951;-68
2021/11/28 06:11:17;;;;;;;;;;;4.70;82.50;;;;;;5000526;28;20572;-68
2021/11/28 06:13:43;;;;;;;9.48;1.33;;;4.60;82.50;;;;;;5012288;28;19944;-68
2021/11/28 06:16:09;;;;;;;9.95;0.95;;;4.50;82.80;;;;;;5011152;28;20040;-68
2021/11/28 06:18:36;;;;;;;9.60;1.20;;;4.40;83.00;;;;;;5010706;28;20037;-68
2021/11/28 06:21:01;;;;;;;9.68;1.63;;;4.30;83.30;;;;;;5008377;28;20048;-68
2021/11/28 06:23:28;;;;;;;6.13;1.17;;;4.20;83.30;;;;;;5007548;28;20534;-68
2021/11/28 06:25:54;;;;;;;12.77;1.52;;;4.10;83.40;;;;;;5010535;28;20026;-68
2021/11/28 06:28:19;;;;;;;11.30;1.60;;;4.10;83.30;;;;;;5011546;28;20038;-68
2021/11/28 06:30:45;;;;;;;9.13;1.50;;;4.00;83.30;;;;;;5010689;28;20053;-68
2021/11/28 06:33:11;;;;;;;6.53;1.10;;;3.90;83.40;;;;;;5010386;28;20037;-68
2021/11/28 06:35:36;;;;;;;10.77;1.55;;;3.80;83.60;;;;;;5008931;28;20033;-68
2021/11/28 06:38:02;;;;;;;10.25;1.52;;;3.80;83.80;;;;;;5010413;28;20780;-68
2021/11/28 06:40:28;;;;;;;10.32;1.40;;;3.70;83.90;;;;;;5011223;28;20022;-68
2021/11/28 06:42:54;;;;;;;7.80;1.33;;;3.70;83.90;;;;;;5001019;28;20050;-68
2021/11/28 06:45:20;;;;;;;9.73;1.15;;;3.70;84.10;;;;;;5005536;28;20026;-68
2021/11/28 06:47:46;;;;;;;12.02;1.42;;;3.70;84.20;;;;;;4992645;28;20036;-68
2021/11/28 06:50:11;;;;;;;10.00;1.85;;;3.70;84.40;;;;;;5010239;28;20022;-68
2021/11/28 06:52:38;;;;;;;10.30;1.52;;;3.70;84.40;;;;;;5011377;28;20038;-68
2021/11/28 06:55:04;;;;;;;9.38;1.17;;;3.70;84.40;;;;;;5010076;28;20030;-68
2021/11/28 06:57:30;;;;;;;8.88;1.17;;;3.70;84.50;;;;;;5009852;28;20046;-68
2021/11/28 06:59:57;;;;;;;8.02;1.80;;;3.70;84.40;;;;;;5009491;28;20053;-68
2021/11/28 07:02:23;;;;;;;9.77;1.52;;;3.80;84.40;;;;;;5009343;28;20026;-67
2021/11/28 07:04:48;;;;;;;8.77;1.30;;;3.80;84.30;;;;;;5010614;28;20097;-68
2021/11/28 07:07:14;;;;;;;11.20;1.40;;;3.80;84.20;;;;;;5010791;28;20072;-68
2021/11/28 07:09:40;;;;;;;5.75;0.98;;;3.70;84.10;;;;;;5003637;28;20037;-67
2021/11/28 07:12:06;;;;;;;8.45;1.80;;;3.70;84.10;;;;;;5009376;28;20022;-68
2021/11/28 07:14:32;;;;;;;12.55;1.65;;;3.70;84.20;;;;;;5009404;28;20034;-68
2021/11/28 07:16:58;;;;;;;10.93;1.90;;;3.70;84.40;;;;;;5003474;28;20140;-68
2021/11/28 07:19:24;;;;;;;10.57;1.83;;;3.80;84.50;;;;;;5007408;28;20033;-67
2021/11/28 07:21:50;;;;;;;6.05;1.33;;;3.80;84.40;;;;;;4995423;28;20037;-68
2021/11/28 07:24:16;;;;;;;8.88;1.70;;;3.80;84.30;;;;;;5007099;28;20030;-68
2021/11/28 07:26:42;;;;;;;12.52;2.83;;;3.80;84.40;;;;;;5003052;28;20044;-68
2021/11/28 07:29:08;;;;;;;14.57;4.07;;;3.90;84.40;;;;;;4994873;28;20022;-68
2021/11/28 07:31:33;;;;;;;11.82;2.20;;;4.00;84.40;;;;;;4990531;28;20037;-68
2021/11/28 07:33:59;;;;;;;10.15;1.33;;;4.00;84.20;;;;;;4994144;28;20031;-68
2021/11/28 07:36:25;;;;;;;8.82;1.20;;;4.00;84.00;;;;;;4996620;28;20077;-68
2021/11/28 07:38:51;;;;;;;11.88;1.40;;;4.00;83.70;;;;;;4998116;28;20038;-68
2021/11/28 07:41:16;;;;;;;8.05;2.17;;;4.00;83.50;;;;;;4994455;28;20097;-68
2021/11/28 07:43:42;;;;;;;10.75;1.80;;;4.00;83.30;;;;;;4999743;28;20049;-68
2021/11/28 07:46:08;;;;;;;8.90;1.85;;;4.00;83.20;;;;;;4996708;28;20080;-68
2021/11/28 07:48:34;;;;;;;9.43;1.77;;;3.90;83.20;;;;;;4996089;28;20034;-68
2021/11/28 07:51:00;;;;;;;10.57;2.00;;;3.90;84.00;;;;;;4992050;28;20105;-68
2021/11/28 07:53:26;;;;;;;9.88;2.08;;;3.90;83.20;;;;;;5000124;28;20030;-68
2021/11/28 07:55:52;;;;;;;7.53;2.20;;;3.90;83.10;;;;;;4993473;28;20022;-68
2021/11/28 07:58:18;;;;;;;10.82;2.20;;;4.00;83.20;;;;;;5007798;28;20052;-68
2021/11/28 08:00:44;;;;;;;10.40;2.00;;;4.10;82.90;;;;;;5011208;28;20393;-67
2021/11/28 08:03:10;;;;;;;10.25;1.77;;;4.30;82.40;;;;;;5004376;28;20018;-68
2021/11/28 08:05:36;;;;;;;10.48;1.77;;;4.40;82.10;;;;;;5009769;28;20033;-68
2021/11/28 08:08:04;;;;;;;11.40;1.45;;;4.40;82.10;;;;;;5011650;28;20036;-68
2021/11/28 08:10:30;;;;;;;7.43;1.63;;;4.30;82.10;;;;;;5000171;28;20042;-68
2021/11/28 08:12:56;;;;;;;9.25;1.38;;;4.30;82.00;;;;;;4999127;28;20018;-68
2021/11/28 08:15:22;;;;;;;10.80;1.10;;;4.30;82.00;;;;;;4996873;28;20049;-68
2021/11/28 08:17:49;;;;;;;10.60;1.45;;;4.30;81.90;;;;;;5000132;28;20034;-68
2021/11/28 08:20:17;;;;;;;8.35;1.20;;;4.40;81.80;;;;;;4999093;28;20034;-68
2021/11/28 08:22:44;;;;;;;9.15;1.38;;;4.40;81.40;;;;;;4999752;28;20481;-68
2021/11/28 08:25:12;;;;;;;10.43;1.20;;;4.50;81.20;;;;;;5001583;28;20823;-68
2021/11/28 08:27:38;;;;;;;10.70;1.40;;;4.60;81.00;;;;;;5006424;28;20026;-68
2021/11/28 08:30:11;;;;;;;7.15;1.30;;;4.80;80.70;;;;;;5011331;28;20101;-69
2021/11/28 08:32:39;;;;;;;10.02;1.63;;;6.00;78.90;;;;;;5000797;28;20034;-68
2021/11/28 08:35:09;;;;;;;8.23;1.33;;;7.30;75.60;;;;;;4996193;28;20027;-68
2021/11/28 08:37:35;;;;;;;7.68;1.48;;;8.60;72.40;;;;;;4993248;28;20520;-69
2021/11/28 08:40:10;;;;;;;7.82;1.80;;;9.80;69.70;;;;;;5003990;28;20014;-68
2021/11/28 08:42:39;;;;;;;9.65;1.75;;;10.90;66.40;;;;;;5011891;28;20081;-68
2021/11/28 08:45:08;;;;;;;7.25;1.75;;;11.90;63.70;;;;;;5016355;28;20026;-68
2021/11/28 08:47:34;;;;;;;11.80;2.03;;;12.50;61.70;;;;;;5011265;28;20480;-69
2021/11/28 08:50:00;;;;;;;10.55;2.47;;;12.90;61.10;;;;;;5012195;28;20129;-68
2021/11/28 08:52:27;;;;;;;9.23;2.08;;;13.40;59.70;;;;;;5010126;28;20026;-68
2021/11/28 08:54:53;;;;;;;8.82;2.33;;;13.70;58.50;;;;;;5006594;28;20030;-68
2021/11/28 08:57:18;;;;;;;9.18;2.47;;;13.70;58.20;;;;;;5001168;28;20100;-68
2021/11/28 08:59:45;;;;;;;10.77;2.75;;;14.70;56.30;;;;;;5007612;28;20034;-69
2021/11/28 09:02:11;;;;;;;13.45;3.20;;;15.20;54.10;;;;;;5010759;28;20489;-69
2021/11/28 09:04:38;;;;;;;11.07;3.08;;;15.70;51.80;;;;;;5013716;28;20041;-69
2021/11/28 09:07:04;;;;;;;11.73;2.50;;;16.10;49.20;;;;;;5005306;28;20492;-69
2021/11/28 09:09:30;;;;;;;9.82;5.03;;;16.00;49.40;;;;;;5010393;28;20084;-69
2021/11/28 09:11:56;;;;;;;9.68;3.03;;;17.10;47.30;;;;;;5006207;28;20029;-68
2021/11/28 09:14:22;;;;;;;13.27;1.73;;;17.10;46.20;;;;;;5003035;28;20529;-68
2021/11/28 09:16:48;;;;;;;11.00;1.80;;;15.90;47.50;;;;;;5009880;28;20173;-69
2021/11/28 09:21:45;;;;;;;9.52;1.42;;;14.00;51.20;;;;;;5009381;28;20401;-69
2021/11/28 09:26:55;;;;;;;11.77;1.52;;;12.70;53.20;;;;;;5011879;28;20464;-68
2021/11/28 09:29:21;;;;;;;11.65;1.70;;;12.10;54.60;;;;;;5010414;28;20038;-68
2021/11/28 09:31:47;;;;;;;9.73;1.85;;;11.60;56.20;;;;;;4998983;28;20038;-67
2021/11/28 09:34:13;;;;;;;15.65;2.30;;;11.30;57.10;;;;;;5012510;28;20104;-68
2021/11/28 09:36:39;;;;;;;9.95;2.30;;;11.20;57.70;;;;;;5006574;28;20038;-67
2021/11/28 09:39:05;;;;;;;10.43;1.80;;;11.00;58.20;;;;;;5011912;28;20022;-68
2021/11/28 09:41:37;;;;;;;9.73;1.75;;;10.70;59.20;;;;;;4996153;28;20034;-68
2021/11/28 09:44:09;;;;;;;14.25;1.75;;;10.70;59.80;;;;;;5000705;28;20045;-68
2021/11/28 09:46:36;;;;;;;10.85;1.80;;;10.70;59.70;;;;;;5010019;28;20026;-68
2021/11/28 09:49:04;;;;;;;10.50;1.85;;;10.60;59.90;;;;;;5005906;28;20037;-68
2021/11/28 09:51:31;;;;;;;15.75;6.43;;;10.60;60.00;;;;;;5004746;28;20026;-69
2021/11/28 09:54:03;;;;;;;13.07;4.60;;;10.50;59.80;;;;;;5003758;28;20022;-69
2021/11/28 09:56:34;;;;;;;12.30;4.68;;;10.80;59.70;;;;;;5008419;28;20139;-69
2021/11/28 09:59:02;;;;;;;;;;;11.00;59.80;;;;;;5006086;28;20053;-70
2021/11/28 10:01:29;;;;;;;19.50;10.45;;;11.90;58.80;;;;;;5004104;28;20018;-70
2021/11/28 10:03:55;;;;;;;16.48;12.48;;;14.50;54.10;;;;;;5001644;28;20022;-70
2021/11/28 10:06:22;;;;;;;15.23;9.73;;;16.60;48.60;;;;;;5001014;28;20033;-70
2021/11/28 10:08:48;;;;;;;16.80;10.60;;;18.00;44.30;;;;;;5004378;28;20052;-69
2021/11/28 10:11:17;;;;;;;14.98;9.77;;;19.50;41.70;;;;;;4996613;28;20030;-69
2021/11/28 10:13:44;;;;;;;17.42;10.10;;;20.50;39.50;;;;;;4995017;28;20026;-69
2021/11/28 10:16:10;;;;;;;18.02;12.02;;;21.40;37.40;;;;;;4995794;28;20022;-69
2021/11/28 10:18:36;;;;;;;21.73;13.18;;;22.40;35.20;;;;;;4998644;28;20453;-69
2021/11/28 10:21:03;;;;;;;12.13;9.65;;;22.10;35.10;;;;;;4996803;28;20030;-68
2021/11/28 10:23:28;;;;;;;26.98;19.10;;;23.70;33.10;;;;;;5004102;28;20104;-68
2021/11/28 10:26:17;;;;;;;36.03;28.65;;;22.10;33.40;;;;;;4993869;28;20054;-68
2021/11/28 10:29:27;;;;;;;13.25;6.57;;;22.90;34.00;;;;;;5000287;28;20034;-68
2021/11/28 10:31:55;;;;;;;11.57;2.70;;;21.20;34.10;;;;;;4914389;29;20051;-68
2021/11/28 10:34:41;;;;;;;12.10;8.43;;;20.00;36.80;;;;;;4919915;29;20556;-69
2021/11/28 10:37:21;;;;;;;8.88;2.08;;;22.30;33.10;;;;;;4924536;29;20040;-69
2021/11/28 10:39:51;;;;;;;6.82;2.78;;;19.70;30.30;;;;;;4922135;29;20032;-68
2021/11/28 10:42:28;;;;;;;10.23;7.60;;;18.00;31.50;;;;;;4918190;29;20116;-68
2021/11/28 10:44:59;;;;;;;9.15;8.10;;;20.00;32.30;;;;;;4925915;29;20036;-69
2021/11/28 10:47:32;;;;;;;;;;;22.70;29.10;;;;;;4917515;29;20091;-69
2021/11/28 10:50:06;;;;;;;8.95;6.13;;;20.20;29.20;;;;;;4929369;29;19996;-68
2021/11/28 10:52:31;;;;;;;9.55;3.53;;;23.10;28.40;;;;;;4927475;29;20035;-69
2021/11/28 10:54:57;;;;;;;9.98;4.13;;;21.30;28.40;;;;;;4933284;29;20043;-69
2021/11/28 10:57:24;;;;;;;7.70;3.10;;;20.50;29.20;;;;;;4924290;29;20043;-69
2021/11/28 10:59:59;;;;;;;8.57;2.83;;;20.90;29.00;;;;;;4919728;29;20058;-69
2021/11/28 11:02:33;;;;;;;9.68;5.82;;;20.40;28.70;;;;;;4954572;28;20169;-68
2021/11/28 11:05:01;;;;;;;12.43;3.78;;;21.80;28.50;;;;;;4992857;28;20019;-68
2021/11/28 11:07:39;;;;;;;10.45;4.65;;;20.90;27.50;;;;;;5001855;28;20029;-69
2021/11/28 11:10:16;;;;;;;10.90;6.63;;;20.00;28.60;;;;;;5001191;28;20022;-69
2021/11/28 11:12:45;;;;;;;8.18;3.00;;;20.80;29.60;;;;;;4998984;28;20072;-68
2021/11/28 11:15:15;;;;;;;11.20;6.88;;;19.70;28.60;;;;;;4999821;28;20034;-68
2021/11/28 11:17:55;;;;;;;12.27;8.32;;;18.80;29.90;;;;;;4998695;28;20193;-67
2021/11/28 11:20:29;;;;;;;10.95;5.10;;;18.10;30.90;;;;;;4993887;28;20169;-68
2021/11/28 11:22:56;;;;;;;7.47;2.30;;;17.00;33.40;;;;;;5008131;28;20485;-68
2021/11/28 11:25:32;;;;;;;11.75;7.07;;;16.60;33.90;;;;;;5011395;28;20075;-67
2021/11/28 11:28:15;;;;;;;8.77;4.10;;;18.70;34.10;;;;;;5002240;28;20034;-68
2021/11/28 11:30:41;;;;;;;9.75;3.80;;;20.70;29.80;;;;;;4995871;28;20398;-68
2021/11/28 11:33:10;;;;;;;10.32;3.33;;;18.90;29.80;;;;;;4998855;28;20034;-68
2021/11/28 11:35:41;;;;;;;10.40;4.75;;;18.60;30.70;;;;;;5002899;28;20072;-68
2021/11/28 11:38:15;;;;;;;10.85;5.53;;;19.50;31.20;;;;;;4997609;28;20046;-68
2021/11/28 11:40:41;;;;;;;10.35;5.07;;;19.50;29.20;;;;;;4999612;28;20029;-68
2021/11/28 11:43:08;;;;;;;5.75;1.90;;;21.60;28.50;;;;;;5004357;28;20098;-69
2021/11/28 11:45:36;;;;;;;35.38;25.67;;;22.00;27.40;;;;;;4996828;28;20413;-68
2021/11/28 11:48:08;;;;;;;8.25;2.97;;;23.00;26.10;;;;;;5003740;28;20027;-68
2021/11/28 11:50:35;;;;;;;12.13;6.65;;;21.80;27.10;;;;;;4997175;28;20065;-69
2021/11/28 11:53:03;;;;;;;16.02;8.90;;;19.90;28.80;;;;;;4991710;28;20030;-68
2021/11/28 11:55:31;;;;;;;11.60;6.30;;;19.00;29.50;;;;;;4997759;28;20461;-68
2021/11/28 11:58:25;;;;;;;10.73;3.05;;;18.60;29.70;;;;;;4992939;28;20438;-69
2021/11/28 12:01:00;;;;;;;8.02;2.30;;;17.90;31.60;;;;;;4995887;28;20049;-68
2021/11/28 12:03:26;;;;;;;9.38;3.50;;;17.60;31.30;;;;;;4990879;28;20081;-68
2021/11/28 12:05:58;;;;;;;12.82;4.00;;;16.70;33.10;;;;;;4992555;28;20034;-68
2021/11/28 12:08:31;;;;;;;10.45;3.78;;;15.70;34.30;;;;;;4991094;28;20015;-68
2021/11/28 12:11:12;;;;;;;8.27;2.95;;;14.80;35.90;;;;;;4993923;28;20022;-68
2021/11/28 12:13:40;;;;;;;;;;;16.90;35.50;;;;;;4996995;28;20041;-68
2021/11/28 12:16:06;;;;;;;12.52;8.07;;;17.20;32.50;;;;;;5003471;28;19909;-68
2021/11/28 12:18:34;;;;;;;13.88;7.50;;;16.80;33.30;;;;;;5002825;28;20107;-70
2021/11/28 12:21:04;;;;;;;9.45;4.20;;;17.20;33.70;;;;;;5009276;28;20030;-69
2021/11/28 12:24:00;;;;;;;9.65;3.50;;;16.70;33.10;;;;;;5002641;28;20061;-69
2021/11/28 12:26:29;;;;;;;8.95;3.83;;;18.90;32.00;;;;;;4996144;28;20523;-69
2021/11/28 12:29:15;;;;;;;8.32;2.97;;;20.90;29.10;;;;;;5004876;28;20030;-69
2021/11/28 12:32:09;;;;;;;40.53;30.10;;;20.40;28.40;;;;;;4997775;28;20070;-68
2021/11/28 12:34:52;;;;;;;10.05;4.93;;;18.70;29.50;;;;;;5002912;28;20125;-68
2021/11/28 12:37:30;;;;;;;11.32;6.30;;;17.00;31.80;;;;;;4997091;28;20077;-68
2021/11/28 12:40:17;;;;;;;12.98;6.97;;;16.30;32.90;;;;;;4998030;28;20034;-69
2021/11/28 12:42:45;;;;;;;15.02;7.82;;;16.00;34.30;;;;;;4999064;28;20042;-69
2021/11/28 12:45:12;;;;;;;7.20;3.80;;;15.90;34.70;;;;;;4996988;28;20528;-69
2021/11/28 12:47:38;;;;;;;8.30;3.70;;;15.90;34.70;;;;;;5007392;28;20045;-69
2021/11/28 12:50:17;;;;;;;13.50;7.43;;;15.90;34.80;;;;;;4997779;28;20026;-69
2021/11/28 12:52:50;;;;;;;6.40;2.15;;;15.90;35.60;;;;;;5007985;28;20521;-70
2021/11/28 12:55:19;;;;;;;8.20;3.42;;;16.30;33.70;;;;;;5000755;28;20105;-70
2021/11/28 12:58:00;;;;;;;10.68;3.83;;;18.10;31.70;;;;;;4985393;28;20401;-70
2021/11/28 13:00:27;;;;;;;7.10;4.55;;;21.00;28.70;;;;;;4997619;28;20045;-70
2021/11/28 13:02:59;;;;;;;16.88;12.43;;;22.00;27.20;;;;;;4993856;28;20026;-70
2021/11/28 13:05:30;;;;;;;10.15;6.40;;;23.20;26.00;;;;;;5008683;28;20048;-71